South Reno (Wolf Run), Nevada Weather observations

Data are for observation ending at time listed.
 Day   Time    Ave.   Ave.  Ave.  Vector   Max.   Stn.    Total    Solar   Ave.  
  of    of     Air    Rel.  Wind   Wind    Wind   Baro.  Precip.   Rad.    Soil  
Year   Day     Temp.  Hum.  Speed  Dir.    Gust   Pres.                    Temp. 
2014   (PST)    F      %     mph   deg.    mph     mb.     in.     W/m2     F   
------------------------------------------------------------------------------
 234    1:30   56.6    46    3.3   240      8.6  99999.0    0.00       0    67.6
 234    1:40   57.5    45    4.1   227      7.9  99999.0    0.00       0    67.6
 234    1:50   56.9    46    2.8   226      6.2  99999.0    0.00       0    67.5
 234    2:00   56.4    47    2.8   235      5.4  99999.0    0.00       0    67.4
 234    2:10   55.2    47    2.9   234      4.9  99999.0    0.00       0    67.3
 234    2:20   54.8    49    3.9   236      6.1  99999.0    0.00       0    67.2
 234    2:30   55.6    46    4.0   226      6.9  99999.0    0.00       0    67.1
 234    2:40   55.3    48    4.4   242     10.2  99999.0    0.00       0    67.0
 234    2:50   55.8    47    2.8   248      9.3  99999.0    0.00       0    66.9
 234    3:00   56.4    45    4.5   235     11.8  99999.0    0.00       0    66.8
 234    3:10   57.1    43    3.5   232      7.8  99999.0    0.00       0    66.7
 234    3:20   55.6    46    2.1   248      6.2  99999.0    0.00       0    66.6
 234    3:30   56.5    44    3.5   227      8.0  99999.0    0.00       0    66.6
 234    3:40   55.0    46    3.2   232      5.3  99999.0    0.00       0    66.5
 234    3:50   56.0    44    3.3   222      6.0  99999.0    0.00       0    66.4
 234    4:00   54.6    47    3.2   228      7.3  99999.0    0.00       0    66.3
 234    4:10   54.3    48    1.7   240      3.4  99999.0    0.00       0    66.2
 234    4:20   54.4    49    3.2   241      9.1  99999.0    0.00       0    66.2
 234    4:30   54.5    49    1.5   249      6.9  99999.0    0.00       0    66.1
 234    4:40   55.3    47    2.4   233      6.0  99999.0    0.00       0    66.0
 234    4:50   55.2    48    1.8   243      5.4  99999.0    0.00       0    66.0
 234    5:00   54.4    49    2.3   233      7.4  99999.0    0.00       0    65.9
 234    5:10   54.1    49    2.9   236      7.6  99999.0    0.00       1    65.8
 234    5:20   53.5    50    4.2   223      6.2  99999.0    0.00       3    65.8
 234    5:30   54.2    49    0.9   262      2.7  99999.0    0.00       8    65.7
 234    5:40   54.4    50    2.4   218      6.7  99999.0    0.00      18    65.6
 234    5:50   55.9    46    3.9   224      8.3  99999.0    0.00      39    65.6
 234    6:00   58.3    42    1.9   223      5.1  99999.0    0.00      68    65.5
 234    6:10   61.0    39    2.0   176      5.8  99999.0    0.00     103    65.5
 234    6:20   63.1    37    0.6   351      3.9  99999.0    0.00     137    65.4
 234    6:30   65.3    34    1.4    67      5.6  99999.0    0.00     167    65.3
 234    6:40   64.9    36    2.3    63      5.9  99999.0    0.00     197    65.3
 234    6:50   65.1    36    2.0    69      6.4  99999.0    0.00     229    65.2
 234    7:00   65.2    33    4.4    67     12.7  99999.0    0.00     261    65.2
 234    7:10   67.2    31    6.4   196     16.9  99999.0    0.00     294    65.1
 234    7:20   69.7    28    7.7   192     14.7  99999.0    0.00     326    65.1
 234    7:30   70.3    27    9.5   207     20.9  99999.0    0.00     360    65.0
 234    7:40   70.4    26   14.4   218     23.5  99999.0    0.00     393    65.0
 234    7:50   70.7    24   16.4   217     28.1  99999.0    0.00     427    65.0
 234    8:00   70.8    25   17.6   225     32.8  99999.0    0.00     460    65.0
 234    8:10   71.2    25   18.0   216     27.2  99999.0    0.00     491    64.9
 234    8:20   71.5    24   17.9   223     32.9  99999.0    0.00     524    64.9
 234    8:30   72.0    24   16.0   219     30.5  99999.0    0.00     554    64.9
 234    8:40   72.2    23   16.8   223     25.4  99999.0    0.00     583    64.9
 234    8:50   72.6    22   14.7   219     23.0  99999.0    0.00     611    64.9
 234    9:00   73.1    21   16.6   220     32.7  99999.0    0.00     639    64.9
 234    9:10   73.5    22   13.8   221     26.4  99999.0    0.00     666    64.8
 234    9:20   73.8    21   13.1   209     22.7  99999.0    0.00     692    64.8
 234    9:30   74.2    21   15.4   221     28.4  99999.0    0.00     717    64.8
 234    9:40   74.4    21   19.2   222     29.8  99999.0    0.00     742    64.8
 234    9:50   74.2    20   20.5   219     33.8  99999.0    0.00     766    64.8
 234   10:00   74.7    21   18.5   217     29.9  99999.0    0.00     785    64.8
 234   10:10   74.8    20   19.8   218     33.8  99999.0    0.00     805    64.8
 234   10:20   75.1    20   18.2   214     28.0  99999.0    0.00     823    64.8
 234   10:30   75.2    20   19.0   216     29.2  99999.0    0.00     838    64.8
 234   10:40   75.7    20   16.5   217     30.9  99999.0    0.00     853    64.9
 234   10:50   75.8    21   16.2   217     26.2  99999.0    0.00     869    64.9
 234   11:00   76.2    21   18.3   228     30.1  99999.0    0.00     886    64.9
 234   11:10   76.6    21   16.8   219     27.7  99999.0    0.01     894    64.9
 234   11:20   76.5    22   17.2   234     28.7  99999.0    0.00     905    65.0
 234   11:30   76.5    21   17.4   236     28.9  99999.0    0.00     915    65.0
 234   11:40   76.9    21   16.0   229     24.5  99999.0    0.00     922    65.0
 234   11:50   77.0    21   16.9   226     26.4  99999.0    0.00     928    65.1
 234   12:00   77.3    20   15.6   221     25.7  99999.0    0.00     929    65.1
 234   12:10   77.9    20   15.8   223     26.6  99999.0    0.00     929    65.2
 234   12:20   77.8    20   15.4   208     25.7  99999.0    0.00     931    65.2
 234   12:30   78.0    20   13.7   222     25.0  99999.0    0.00     929    65.3
 234   12:40   78.2    20   11.6   213     25.5  99999.0    0.00     926    65.3
 234   12:50   78.3    19   16.1   225     28.8  99999.0    0.00     918    65.4
 234   13:00   78.3    19   14.2   221     24.9  99999.0    0.00     912    65.5
 234   13:10   79.0    18   13.9   218     21.9  99999.0    0.00     908    65.5
 234   13:20   79.1    18    9.7   207     20.6  99999.0    0.00     896    65.6
 234   13:30   78.9    19    7.8   196     17.5  99999.0    0.00     879    65.7
 234   13:40   79.6    20    9.4   214     19.8  99999.0    0.00     865    65.8
 234   13:50   78.8    20   11.2   237     20.8  99999.0    0.00     846    65.9
 234   14:00   79.6    19   10.9   236     20.4  99999.0    0.00     832    65.9
 234   14:10   79.4    18    7.8   238     21.5  99999.0    0.00     815    66.0
 234   14:20   80.6    18    9.7   263     26.3  99999.0    0.00     791    66.1
 234   14:30   80.4    19    7.7   223     15.4  99999.0    0.00     767    66.3
 234   14:40   79.5    18    9.1   234     18.2  99999.0    0.00     753    66.4
 234   14:50   80.6    17    7.3   289     21.8  99999.0    0.00     736    66.5
 234   15:00   79.9    17    9.9   270     24.2  99999.0    0.00     709    66.6
 234   15:10   79.9    18    7.0   283     16.5  99999.0    0.00     682    66.7
 234   15:20   79.4    18    8.8   289     20.3  99999.0    0.00     657    66.8
 234   15:30   79.1    20    7.7   260     23.3  99999.0    0.00     623    66.9
 234   15:40   78.9    20    8.0   260     21.9  99999.0    0.00     590    67.0
 234   15:50   78.0    18   13.1   241     24.2  99999.0    0.00     558    67.0
 234   16:00   78.4    20    9.7   256     27.7  99999.0    0.00     530    67.1
 234   16:10   78.0    20    9.8   250     21.9  99999.0    0.00     497    67.2
 234   16:20   77.5    20   10.6   249     20.5  99999.0    0.00     465    67.3
 234   16:30   78.0    20    5.1   262     15.9  99999.0    0.00     431    67.4
 234   16:40   77.1    20   10.2   250     23.0  99999.0    0.00     399    67.4
 234   16:50   76.7    21    8.3   258     18.8  99999.0    0.00     366    67.4
 234   17:00   76.8    20    5.6   267     17.5  99999.0    0.00     336    67.5
 234   17:10   76.6    20    5.3   283     14.7  99999.0    0.00     303    67.5
 234   17:20   75.1    21    5.9   265     18.6  99999.0    0.00     248    67.5
 234   17:30   74.3    20    5.9   269     18.8  99999.0    0.00      76    67.5
 234   17:40   73.8    22    4.8   267     16.1  99999.0    0.00      63    67.5
 234   17:50   73.3    21    6.1   262     16.8  99999.0    0.00      36    67.5
 234   18:00   72.7    21    4.9   260     15.5  99999.0    0.00      28    67.5
 234   18:10   72.1    21    4.0   267     12.2  99999.0    0.00      22    67.5
 234   18:20   71.3    21    5.6   255     18.1  99999.0    0.00      17    67.5
 234   18:30   70.7    21    6.9   250     12.4  99999.0    0.00      13    67.4
 234   18:40   70.2    22    4.3   246      7.4  99999.0    0.00       9    67.4
 234   18:50   69.1    23    2.1   230      4.1  99999.0    0.00       5    67.4
 234   19:00   67.1    27    2.5   227      4.6  99999.0    0.00       2    67.3
 234   19:10   67.3    26    6.8   237      9.2  99999.0    0.00       0    67.3
 234   19:20   69.0    24    9.2   238     15.5  99999.0    0.00       0    67.2
 234   19:30   68.5    25    7.1   231     10.6  99999.0    0.00       0    67.2
 234   19:40   67.2    27    5.4   249     12.5  99999.0    0.00       0    67.1
 234   19:50   67.1    27    4.4   268     13.1  99999.0    0.00       0    67.0
 234   20:00   66.1    32    7.8   236     18.8  99999.0    0.00       0    67.0
 234   20:10   63.1    34    5.7   249     17.3  99999.0    0.00       0    66.9
 234   20:20   65.2    30    5.7   241     13.0  99999.0    0.00       0    66.9
 234   20:30   62.7    38    6.7   233     11.3  99999.0    0.00       0    66.8
 234   20:40   61.8    37    8.7   215     17.2  99999.0    0.00       0    66.7
 234   20:50   64.3    30    8.8   222     14.1  99999.0    0.00       0    66.6
 234   21:00   65.2    28   10.7   238     20.3  99999.0    0.00       0    66.5
 234   21:10   65.3    28   10.0   244     14.2  99999.0    0.00       0    66.4
 234   21:20   65.8    26    8.6   238     12.8  99999.0    0.00       0    66.3
 234   21:30   65.4    26    8.2   237     12.0  99999.0    0.00       0    66.2
 234   21:40   64.6    26    4.3   234      8.0  99999.0    0.00       0    66.1
 234   21:50   63.0    29    1.6   266      8.5  99999.0    0.00       0    66.0
 234   22:00   60.7    32    1.0   280      2.7  99999.0    0.00       0    65.9
 234   22:10   59.8    33    3.1   252      7.0  99999.0    0.00       0    65.9
 234   22:20   59.1    36    0.3   258      2.7  99999.0    0.00       0    65.8
 234   22:30   58.7    38    1.9   312      4.3  99999.0    0.00       0    65.7
 234   22:40   59.9    36    0.6   305      3.5  99999.0    0.00       0    65.6
 234   22:50   58.3    38    2.2   243      5.0  99999.0    0.00       0    65.6
 234   23:00   58.3    39    1.8   310      6.7  99999.0    0.00       0    65.5
 234   23:10   59.6    37    2.5   320      4.5  99999.0    0.00       0    65.4
 234   23:20   58.5    38    2.6   232      4.7  99999.0    0.00       0    65.4
 234   23:30   57.5    40    0.4   238      2.2  99999.0    0.00       0    65.3
 234   23:40   57.3    40    0.8   250      3.0  99999.0    0.00       0    65.2
 234   23:50   57.1    40    1.2   243      3.0  99999.0    0.00       0    65.2
 235    0:00   56.1    42    2.2   237      3.8  99999.0    0.00       0    65.1
 235    0:10   56.2    41    2.1   227      3.4  99999.0    0.00       0    65.1
 235    0:20   55.9    42    1.9   242      3.8  99999.0    0.00       0    65.0
 235    0:30   55.2    44    2.1   232      3.7  99999.0    0.00       0    64.9
 235    0:40   55.1    44    3.5   227      5.0  99999.0    0.00       0    64.9
 235    0:50   54.5    45    4.2   229      5.8  99999.0    0.00       0    64.8
 235    1:00   54.6    45    4.3   234      6.7  99999.0    0.00       0    64.8
 235    1:10   54.9    46    4.3   240      6.9  99999.0    0.00       0    64.7
 235    1:20   53.2    51    3.3   246      7.9  99999.0    0.00       0    64.7

Return to South Reno, Nevada graphs page.


Western Regional Climate Center,wrcc@dri.edu